sensor_id;sensor_type;location;lat;lon;timestamp;temperature;humidity
21035;DHT22;10676;50.848;3.272;2023-09-19T00:01:42;15.00;99.90
21035;DHT22;10676;50.848;3.272;2023-09-19T00:04:10;15.00;99.90
21035;DHT22;10676;50.848;3.272;2023-09-19T00:06:46;14.90;99.90
21035;DHT22;10676;50.848;3.272;2023-09-19T00:09:12;14.90;99.90
21035;DHT22;10676;50.848;3.272;2023-09-19T00:11:41;14.80;99.90
21035;DHT22;10676;50.848;3.272;2023-09-19T00:14:07;14.80;99.90
21035;DHT22;10676;50.848;3.272;2023-09-19T00:16:35;14.80;99.90
21035;DHT22;10676;50.848;3.272;2023-09-19T00:19:01;14.80;99.90
21035;DHT22;10676;50.848;3.272;2023-09-19T00:21:33;14.80;99.90
21035;DHT22;10676;50.848;3.272;2023-09-19T00:24:08;14.90;99.90
21035;DHT22;10676;50.848;3.272;2023-09-19T00:26:34;15.00;99.90
21035;DHT22;10676;50.848;3.272;2023-09-19T00:29:00;15.00;99.90
21035;DHT22;10676;50.848;3.272;2023-09-19T00:31:29;15.10;99.90
21035;DHT22;10676;50.848;3.272;2023-09-19T00:33:55;15.20;99.90
21035;DHT22;10676;50.848;3.272;2023-09-19T00:36:31;15.30;99.90
21035;DHT22;10676;50.848;3.272;2023-09-19T00:38:59;15.30;99.90
21035;DHT22;10676;50.848;3.272;2023-09-19T00:41:24;15.40;99.90
21035;DHT22;10676;50.848;3.272;2023-09-19T00:43:50;15.50;99.90
21035;DHT22;10676;50.848;3.272;2023-09-19T00:46:19;15.50;99.90
21035;DHT22;10676;50.848;3.272;2023-09-19T00:48:45;15.50;99.90
21035;DHT22;10676;50.848;3.272;2023-09-19T00:51:12;15.50;99.90
21035;DHT22;10676;50.848;3.272;2023-09-19T00:53:39;15.50;99.90
21035;DHT22;10676;50.848;3.272;2023-09-19T00:56:07;15.60;99.90
21035;DHT22;10676;50.848;3.272;2023-09-19T00:58:34;15.60;99.90
21035;DHT22;10676;50.848;3.272;2023-09-19T01:01:03;15.70;99.90
21035;DHT22;10676;50.848;3.272;2023-09-19T01:03:38;15.70;99.90
21035;DHT22;10676;50.848;3.272;2023-09-19T01:06:05;15.80;99.90
21035;DHT22;10676;50.848;3.272;2023-09-19T01:08:32;15.80;99.90
21035;DHT22;10676;50.848;3.272;2023-09-19T01:11:16;15.80;99.90
21035;DHT22;10676;50.848;3.272;2023-09-19T01:13:58;15.90;99.90
21035;DHT22;10676;50.848;3.272;2023-09-19T01:22:09;16.10;99.90
21035;DHT22;10676;50.848;3.272;2023-09-19T01:30:27;16.20;99.90
21035;DHT22;10676;50.848;3.272;2023-09-19T01:32:56;16.20;99.90
21035;DHT22;10676;50.848;3.272;2023-09-19T01:35:31;16.20;99.90
21035;DHT22;10676;50.848;3.272;2023-09-19T01:37:58;16.30;99.90
21035;DHT22;10676;50.848;3.272;2023-09-19T01:40:24;16.20;99.90
21035;DHT22;10676;50.848;3.272;2023-09-19T01:43:18;16.20;99.90
21035;DHT22;10676;50.848;3.272;2023-09-19T01:46:05;16.30;99.90
21035;DHT22;10676;50.848;3.272;2023-09-19T01:54:11;16.10;99.90
21035;DHT22;10676;50.848;3.272;2023-09-19T01:56:47;16.10;99.90
21035;DHT22;10676;50.848;3.272;2023-09-19T01:59:17;16.00;99.90
21035;DHT22;10676;50.848;3.272;2023-09-19T02:01:48;16.00;99.90
21035;DHT22;10676;50.848;3.272;2023-09-19T02:04:24;15.90;99.90
21035;DHT22;10676;50.848;3.272;2023-09-19T02:06:50;15.90;99.90
21035;DHT22;10676;50.848;3.272;2023-09-19T02:09:17;15.90;99.90
21035;DHT22;10676;50.848;3.272;2023-09-19T02:12:05;15.90;99.90
21035;DHT22;10676;50.848;3.272;2023-09-19T02:14:31;15.90;99.90
21035;DHT22;10676;50.848;3.272;2023-09-19T02:17:05;15.90;99.90
21035;DHT22;10676;50.848;3.272;2023-09-19T02:19:32;15.90;99.90
21035;DHT22;10676;50.848;3.272;2023-09-19T02:21:59;15.90;99.90
21035;DHT22;10676;50.848;3.272;2023-09-19T02:24:26;15.90;99.90
21035;DHT22;10676;50.848;3.272;2023-09-19T02:26:52;15.90;99.90
21035;DHT22;10676;50.848;3.272;2023-09-19T02:29:18;15.90;99.90
21035;DHT22;10676;50.848;3.272;2023-09-19T02:31:43;15.90;99.90
21035;DHT22;10676;50.848;3.272;2023-09-19T02:34:11;15.70;99.90
21035;DHT22;10676;50.848;3.272;2023-09-19T02:36:37;15.60;99.90
21035;DHT22;10676;50.848;3.272;2023-09-19T02:39:03;15.50;99.90
21035;DHT22;10676;50.848;3.272;2023-09-19T02:41:31;15.40;99.90
21035;DHT22;10676;50.848;3.272;2023-09-19T02:43:58;15.30;99.90
21035;DHT22;10676;50.848;3.272;2023-09-19T02:46:24;15.30;99.90
21035;DHT22;10676;50.848;3.272;2023-09-19T02:48:50;15.20;99.90
21035;DHT22;10676;50.848;3.272;2023-09-19T02:51:16;15.20;99.90
21035;DHT22;10676;50.848;3.272;2023-09-19T02:53:41;15.10;99.90
21035;DHT22;10676;50.848;3.272;2023-09-19T02:56:12;15.10;99.90
21035;DHT22;10676;50.848;3.272;2023-09-19T02:58:39;15.10;99.90
21035;DHT22;10676;50.848;3.272;2023-09-19T03:01:09;15.10;99.90
21035;DHT22;10676;50.848;3.272;2023-09-19T03:03:36;15.00;99.90
21035;DHT22;10676;50.848;3.272;2023-09-19T03:06:05;15.00;99.90
21035;DHT22;10676;50.848;3.272;2023-09-19T03:08:35;14.90;99.90
21035;DHT22;10676;50.848;3.272;2023-09-19T03:11:06;14.90;99.90
21035;DHT22;10676;50.848;3.272;2023-09-19T03:13:34;14.80;99.90
21035;DHT22;10676;50.848;3.272;2023-09-19T03:16:02;14.80;99.90
21035;DHT22;10676;50.848;3.272;2023-09-19T03:18:36;14.70;99.90
21035;DHT22;10676;50.848;3.272;2023-09-19T03:21:02;14.70;99.90
21035;DHT22;10676;50.848;3.272;2023-09-19T03:23:30;14.70;99.90
21035;DHT22;10676;50.848;3.272;2023-09-19T03:25:56;14.70;99.90
21035;DHT22;10676;50.848;3.272;2023-09-19T03:28:32;14.60;99.90
21035;DHT22;10676;50.848;3.272;2023-09-19T03:31:04;14.60;99.90
21035;DHT22;10676;50.848;3.272;2023-09-19T03:33:30;14.60;99.90
21035;DHT22;10676;50.848;3.272;2023-09-19T03:36:04;14.50;99.90
21035;DHT22;10676;50.848;3.272;2023-09-19T03:38:33;14.50;99.90
21035;DHT22;10676;50.848;3.272;2023-09-19T03:41:02;14.50;99.90
21035;DHT22;10676;50.848;3.272;2023-09-19T03:43:28;14.50;99.90
21035;DHT22;10676;50.848;3.272;2023-09-19T03:45:54;14.50;99.90
21035;DHT22;10676;50.848;3.272;2023-09-19T03:48:21;14.50;99.90
21035;DHT22;10676;50.848;3.272;2023-09-19T03:50:47;14.50;99.90
21035;DHT22;10676;50.848;3.272;2023-09-19T03:53:21;14.50;99.90
21035;DHT22;10676;50.848;3.272;2023-09-19T03:55:47;14.50;99.90
21035;DHT22;10676;50.848;3.272;2023-09-19T03:58:19;14.50;99.90
21035;DHT22;10676;50.848;3.272;2023-09-19T04:00:46;14.50;99.90
21035;DHT22;10676;50.848;3.272;2023-09-19T04:03:11;14.50;99.90
21035;DHT22;10676;50.848;3.272;2023-09-19T04:05:45;14.40;99.90
21035;DHT22;10676;50.848;3.272;2023-09-19T04:08:12;14.40;99.90
21035;DHT22;10676;50.848;3.272;2023-09-19T04:10:37;14.40;99.90
21035;DHT22;10676;50.848;3.272;2023-09-19T04:13:03;14.40;99.90
21035;DHT22;10676;50.848;3.272;2023-09-19T04:15:29;14.40;99.90
21035;DHT22;10676;50.848;3.272;2023-09-19T04:17:55;14.40;99.90
21035;DHT22;10676;50.848;3.272;2023-09-19T04:20:21;14.40;99.90
21035;DHT22;10676;50.848;3.272;2023-09-19T04:22:48;14.40;99.90
21035;DHT22;10676;50.848;3.272;2023-09-19T04:25:14;14.40;99.90
21035;DHT22;10676;50.848;3.272;2023-09-19T04:27:40;14.40;99.90
21035;DHT22;10676;50.848;3.272;2023-09-19T04:30:08;14.40;99.90
21035;DHT22;10676;50.848;3.272;2023-09-19T04:32:38;14.40;99.90
21035;DHT22;10676;50.848;3.272;2023-09-19T04:35:09;14.50;99.90
21035;DHT22;10676;50.848;3.272;2023-09-19T04:37:44;14.40;99.90
21035;DHT22;10676;50.848;3.272;2023-09-19T04:40:10;14.50;99.90
21035;DHT22;10676;50.848;3.272;2023-09-19T04:42:39;14.50;99.90
21035;DHT22;10676;50.848;3.272;2023-09-19T04:45:06;14.50;99.90
21035;DHT22;10676;50.848;3.272;2023-09-19T04:47:32;14.50;99.90
21035;DHT22;10676;50.848;3.272;2023-09-19T04:49:58;14.50;99.90
21035;DHT22;10676;50.848;3.272;2023-09-19T04:52:24;14.50;99.90
21035;DHT22;10676;50.848;3.272;2023-09-19T04:55:12;14.50;99.90
21035;DHT22;10676;50.848;3.272;2023-09-19T04:57:43;14.60;99.90
21035;DHT22;10676;50.848;3.272;2023-09-19T05:00:14;14.60;99.90
21035;DHT22;10676;50.848;3.272;2023-09-19T05:02:56;14.60;99.90
21035;DHT22;10676;50.848;3.272;2023-09-19T05:05:22;14.60;99.90
21035;DHT22;10676;50.848;3.272;2023-09-19T05:07:49;14.60;99.90
21035;DHT22;10676;50.848;3.272;2023-09-19T05:10:15;14.60;99.90
21035;DHT22;10676;50.848;3.272;2023-09-19T05:12:46;14.60;99.90
21035;DHT22;10676;50.848;3.272;2023-09-19T05:15:14;14.60;99.90
21035;DHT22;10676;50.848;3.272;2023-09-19T05:17:40;14.60;99.90
21035;DHT22;10676;50.848;3.272;2023-09-19T05:20:06;14.60;99.90
21035;DHT22;10676;50.848;3.272;2023-09-19T05:23:12;14.60;99.90
21035;DHT22;10676;50.848;3.272;2023-09-19T05:25:39;14.60;99.90
21035;DHT22;10676;50.848;3.272;2023-09-19T05:28:06;14.70;99.90
21035;DHT22;10676;50.848;3.272;2023-09-19T05:30:34;14.70;99.90
21035;DHT22;10676;50.848;3.272;2023-09-19T05:33:04;14.70;99.90
21035;DHT22;10676;50.848;3.272;2023-09-19T05:35:31;14.80;99.90
21035;DHT22;10676;50.848;3.272;2023-09-19T05:37:57;14.90;99.90
21035;DHT22;10676;50.848;3.272;2023-09-19T05:40:25;14.90;99.90
21035;DHT22;10676;50.848;3.272;2023-09-19T05:42:51;15.00;99.90
21035;DHT22;10676;50.848;3.272;2023-09-19T05:45:17;15.10;99.90
21035;DHT22;10676;50.848;3.272;2023-09-19T05:47:52;15.20;99.90
21035;DHT22;10676;50.848;3.272;2023-09-19T05:50:21;15.20;99.90
21035;DHT22;10676;50.848;3.272;2023-09-19T05:52:54;15.20;99.90
21035;DHT22;10676;50.848;3.272;2023-09-19T05:55:21;15.20;99.90
21035;DHT22;10676;50.848;3.272;2023-09-19T05:57:50;15.30;99.90
21035;DHT22;10676;50.848;3.272;2023-09-19T06:00:20;15.30;99.90
21035;DHT22;10676;50.848;3.272;2023-09-19T06:02:57;15.30;99.90
21035;DHT22;10676;50.848;3.272;2023-09-19T06:05:24;15.30;99.90
21035;DHT22;10676;50.848;3.272;2023-09-19T06:07:50;15.30;99.90
21035;DHT22;10676;50.848;3.272;2023-09-19T06:10:17;15.30;99.90
21035;DHT22;10676;50.848;3.272;2023-09-19T06:12:43;15.40;99.90
21035;DHT22;10676;50.848;3.272;2023-09-19T06:15:13;15.40;99.90
21035;DHT22;10676;50.848;3.272;2023-09-19T06:17:52;15.40;99.90
21035;DHT22;10676;50.848;3.272;2023-09-19T06:20:20;15.50;99.90
21035;DHT22;10676;50.848;3.272;2023-09-19T06:22:48;15.60;99.90
21035;DHT22;10676;50.848;3.272;2023-09-19T06:25:16;15.70;99.90
21035;DHT22;10676;50.848;3.272;2023-09-19T06:27:52;15.70;99.90
21035;DHT22;10676;50.848;3.272;2023-09-19T06:30:20;15.80;99.90
21035;DHT22;10676;50.848;3.272;2023-09-19T06:32:46;15.90;99.90
21035;DHT22;10676;50.848;3.272;2023-09-19T06:35:14;16.10;99.90
21035;DHT22;10676;50.848;3.272;2023-09-19T06:37:40;16.30;99.90
21035;DHT22;10676;50.848;3.272;2023-09-19T06:40:08;16.50;99.90
21035;DHT22;10676;50.848;3.272;2023-09-19T06:42:50;16.70;99.90
21035;DHT22;10676;50.848;3.272;2023-09-19T06:45:16;16.80;99.90
21035;DHT22;10676;50.848;3.272;2023-09-19T06:47:49;17.00;99.90
21035;DHT22;10676;50.848;3.272;2023-09-19T06:50:16;17.10;99.90
21035;DHT22;10676;50.848;3.272;2023-09-19T06:52:44;17.30;99.90
21035;DHT22;10676;50.848;3.272;2023-09-19T06:55:11;17.40;99.90
21035;DHT22;10676;50.848;3.272;2023-09-19T06:57:39;17.50;99.90
21035;DHT22;10676;50.848;3.272;2023-09-19T07:00:06;17.60;99.90
21035;DHT22;10676;50.848;3.272;2023-09-19T07:03:02;17.70;99.90
21035;DHT22;10676;50.848;3.272;2023-09-19T07:05:30;17.90;99.90
21035;DHT22;10676;50.848;3.272;2023-09-19T07:07:57;18.10;99.90
21035;DHT22;10676;50.848;3.272;2023-09-19T07:10:26;18.30;99.90
21035;DHT22;10676;50.848;3.272;2023-09-19T07:13:02;18.50;99.90
21035;DHT22;10676;50.848;3.272;2023-09-19T07:15:29;18.80;99.90
21035;DHT22;10676;50.848;3.272;2023-09-19T07:17:56;19.10;99.90
21035;DHT22;10676;50.848;3.272;2023-09-19T07:20:23;19.30;99.90
21035;DHT22;10676;50.848;3.272;2023-09-19T07:22:52;19.50;99.90
21035;DHT22;10676;50.848;3.272;2023-09-19T07:25:20;19.70;99.90
21035;DHT22;10676;50.848;3.272;2023-09-19T07:27:46;19.80;99.90
21035;DHT22;10676;50.848;3.272;2023-09-19T07:30:12;19.90;99.90
21035;DHT22;10676;50.848;3.272;2023-09-19T07:32:38;19.90;99.90
21035;DHT22;10676;50.848;3.272;2023-09-19T07:35:04;20.00;99.90
21035;DHT22;10676;50.848;3.272;2023-09-19T07:37:34;20.20;99.90
21035;DHT22;10676;50.848;3.272;2023-09-19T07:40:00;20.30;99.90
21035;DHT22;10676;50.848;3.272;2023-09-19T07:42:27;20.40;99.90
21035;DHT22;10676;50.848;3.272;2023-09-19T07:44:52;20.50;99.90
21035;DHT22;10676;50.848;3.272;2023-09-19T07:47:20;20.80;99.90
21035;DHT22;10676;50.848;3.272;2023-09-19T07:49:49;21.10;99.90
21035;DHT22;10676;50.848;3.272;2023-09-19T07:52:15;21.30;99.90
21035;DHT22;10676;50.848;3.272;2023-09-19T07:54:41;21.30;99.90
21035;DHT22;10676;50.848;3.272;2023-09-19T07:57:10;21.30;99.90
21035;DHT22;10676;50.848;3.272;2023-09-19T07:59:36;21.30;99.90
21035;DHT22;10676;50.848;3.272;2023-09-19T08:02:04;21.20;99.90
21035;DHT22;10676;50.848;3.272;2023-09-19T08:04:30;21.20;99.90
21035;DHT22;10676;50.848;3.272;2023-09-19T08:06:58;21.20;99.90
21035;DHT22;10676;50.848;3.272;2023-09-19T08:09:29;21.40;99.90
21035;DHT22;10676;50.848;3.272;2023-09-19T08:11:59;21.50;99.90
21035;DHT22;10676;50.848;3.272;2023-09-19T08:14:28;21.50;99.90
21035;DHT22;10676;50.848;3.272;2023-09-19T08:16:57;21.70;99.90
21035;DHT22;10676;50.848;3.272;2023-09-19T08:19:24;21.90;99.90
21035;DHT22;10676;50.848;3.272;2023-09-19T08:21:55;22.10;99.90
21035;DHT22;10676;50.848;3.272;2023-09-19T08:24:24;22.30;99.90
21035;DHT22;10676;50.848;3.272;2023-09-19T08:26:52;22.50;99.90
21035;DHT22;10676;50.848;3.272;2023-09-19T08:29:20;22.80;99.90
21035;DHT22;10676;50.848;3.272;2023-09-19T08:31:45;23.00;99.90
21035;DHT22;10676;50.848;3.272;2023-09-19T08:34:14;23.20;99.90
21035;DHT22;10676;50.848;3.272;2023-09-19T08:36:40;23.30;99.90
21035;DHT22;10676;50.848;3.272;2023-09-19T08:39:08;23.40;99.90
21035;DHT22;10676;50.848;3.272;2023-09-19T08:41:34;23.30;99.90
21035;DHT22;10676;50.848;3.272;2023-09-19T08:44:00;23.40;99.90
21035;DHT22;10676;50.848;3.272;2023-09-19T08:46:30;23.50;99.90
21035;DHT22;10676;50.848;3.272;2023-09-19T08:49:04;23.60;99.90
21035;DHT22;10676;50.848;3.272;2023-09-19T08:51:43;23.60;99.90
21035;DHT22;10676;50.848;3.272;2023-09-19T08:56:45;23.60;99.90
21035;DHT22;10676;50.848;3.272;2023-09-19T08:59:12;23.60;99.90
21035;DHT22;10676;50.848;3.272;2023-09-19T09:01:39;23.90;99.90
21035;DHT22;10676;50.848;3.272;2023-09-19T09:04:09;24.20;99.90
21035;DHT22;10676;50.848;3.272;2023-09-19T09:06:38;24.40;99.90
21035;DHT22;10676;50.848;3.272;2023-09-19T09:09:06;24.40;99.90
21035;DHT22;10676;50.848;3.272;2023-09-19T09:11:33;24.20;99.90
21035;DHT22;10676;50.848;3.272;2023-09-19T09:13:59;24.10;99.90
21035;DHT22;10676;50.848;3.272;2023-09-19T09:16:25;24.00;99.90
21035;DHT22;10676;50.848;3.272;2023-09-19T09:18:51;23.80;99.90
21035;DHT22;10676;50.848;3.272;2023-09-19T09:21:20;23.70;99.90
21035;DHT22;10676;50.848;3.272;2023-09-19T09:23:48;23.40;99.90
21035;DHT22;10676;50.848;3.272;2023-09-19T09:26:15;23.20;99.90
21035;DHT22;10676;50.848;3.272;2023-09-19T09:28:45;23.20;99.90
21035;DHT22;10676;50.848;3.272;2023-09-19T09:31:24;23.30;99.90
21035;DHT22;10676;50.848;3.272;2023-09-19T09:33:54;23.50;99.90
21035;DHT22;10676;50.848;3.272;2023-09-19T09:36:34;23.80;99.90
21035;DHT22;10676;50.848;3.272;2023-09-19T09:39:00;24.30;99.90
21035;DHT22;10676;50.848;3.272;2023-09-19T09:41:41;24.80;99.90
21035;DHT22;10676;50.848;3.272;2023-09-19T09:44:18;25.50;99.90
21035;DHT22;10676;50.848;3.272;2023-09-19T09:46:48;26.00;99.90
21035;DHT22;10676;50.848;3.272;2023-09-19T09:49:40;26.40;99.90
21035;DHT22;10676;50.848;3.272;2023-09-19T09:52:07;26.80;99.90
21035;DHT22;10676;50.848;3.272;2023-09-19T09:54:59;26.90;99.90
21035;DHT22;10676;50.848;3.272;2023-09-19T09:57:26;27.00;99.90
21035;DHT22;10676;50.848;3.272;2023-09-19T10:00:01;27.10;99.90
21035;DHT22;10676;50.848;3.272;2023-09-19T10:02:39;27.30;99.90
21035;DHT22;10676;50.848;3.272;2023-09-19T10:05:18;27.20;99.90
21035;DHT22;10676;50.848;3.272;2023-09-19T10:07:53;27.20;99.90
21035;DHT22;10676;50.848;3.272;2023-09-19T10:10:36;27.10;99.90
21035;DHT22;10676;50.848;3.272;2023-09-19T10:13:17;27.10;99.90
21035;DHT22;10676;50.848;3.272;2023-09-19T10:15:51;27.40;99.90
21035;DHT22;10676;50.848;3.272;2023-09-19T10:18:23;27.60;99.10
21035;DHT22;10676;50.848;3.272;2023-09-19T10:20:49;27.90;98.80
21035;DHT22;10676;50.848;3.272;2023-09-19T10:23:18;28.30;97.90
21035;DHT22;10676;50.848;3.272;2023-09-19T10:25:48;28.70;96.90
21035;DHT22;10676;50.848;3.272;2023-09-19T10:28:16;28.60;96.00
21035;DHT22;10676;50.848;3.272;2023-09-19T10:30:47;28.50;95.40
21035;DHT22;10676;50.848;3.272;2023-09-19T10:33:16;28.30;95.10
21035;DHT22;10676;50.848;3.272;2023-09-19T10:35:44;27.80;95.80
21035;DHT22;10676;50.848;3.272;2023-09-19T10:38:17;27.60;96.90
21035;DHT22;10676;50.848;3.272;2023-09-19T10:40:47;27.70;96.30
21035;DHT22;10676;50.848;3.272;2023-09-19T10:43:16;27.80;95.80
21035;DHT22;10676;50.848;3.272;2023-09-19T10:45:49;27.60;95.70
21035;DHT22;10676;50.848;3.272;2023-09-19T10:48:17;27.40;96.50
21035;DHT22;10676;50.848;3.272;2023-09-19T10:53:26;27.20;96.80
21035;DHT22;10676;50.848;3.272;2023-09-19T10:55:56;27.20;96.80
21035;DHT22;10676;50.848;3.272;2023-09-19T10:58:31;26.90;96.90
21035;DHT22;10676;50.848;3.272;2023-09-19T11:01:02;26.60;97.60
21035;DHT22;10676;50.848;3.272;2023-09-19T11:03:32;26.30;98.00
21035;DHT22;10676;50.848;3.272;2023-09-19T11:06:09;26.00;99.30
21035;DHT22;10676;50.848;3.272;2023-09-19T11:08:59;26.10;98.70
21035;DHT22;10676;50.848;3.272;2023-09-19T11:11:45;26.20;98.60
21035;DHT22;10676;50.848;3.272;2023-09-19T11:17:33;26.50;98.20
21035;DHT22;10676;50.848;3.272;2023-09-19T11:30:40;25.90;99.20
21035;DHT22;10676;50.848;3.272;2023-09-19T11:33:29;25.60;99.60
21035;DHT22;10676;50.848;3.272;2023-09-19T11:43:53;24.40;99.90
21035;DHT22;10676;50.848;3.272;2023-09-19T11:46:25;24.30;99.90
21035;DHT22;10676;50.848;3.272;2023-09-19T11:48:51;24.00;99.90
21035;DHT22;10676;50.848;3.272;2023-09-19T11:51:21;23.80;99.90
21035;DHT22;10676;50.848;3.272;2023-09-19T11:53:57;23.60;99.90
21035;DHT22;10676;50.848;3.272;2023-09-19T11:56:26;23.40;99.90
21035;DHT22;10676;50.848;3.272;2023-09-19T11:58:57;23.10;99.90
21035;DHT22;10676;50.848;3.272;2023-09-19T12:01:32;23.00;99.90
21035;DHT22;10676;50.848;3.272;2023-09-19T12:04:01;22.90;99.90
21035;DHT22;10676;50.848;3.272;2023-09-19T12:06:30;22.80;99.90
21035;DHT22;10676;50.848;3.272;2023-09-19T12:08:56;22.80;99.90
21035;DHT22;10676;50.848;3.272;2023-09-19T12:11:29;22.80;99.90
21035;DHT22;10676;50.848;3.272;2023-09-19T12:13:56;23.00;99.90
21035;DHT22;10676;50.848;3.272;2023-09-19T12:16:26;23.10;99.90
21035;DHT22;10676;50.848;3.272;2023-09-19T12:18:55;23.30;99.90
21035;DHT22;10676;50.848;3.272;2023-09-19T12:21:27;23.50;99.90
21035;DHT22;10676;50.848;3.272;2023-09-19T12:24:06;23.50;99.90
21035;DHT22;10676;50.848;3.272;2023-09-19T12:26:41;23.40;99.90
21035;DHT22;10676;50.848;3.272;2023-09-19T12:29:20;23.50;99.90
21035;DHT22;10676;50.848;3.272;2023-09-19T12:31:49;23.60;99.90
21035;DHT22;10676;50.848;3.272;2023-09-19T12:34:25;23.60;99.90
21035;DHT22;10676;50.848;3.272;2023-09-19T12:37:07;23.70;99.90
21035;DHT22;10676;50.848;3.272;2023-09-19T12:39:38;23.70;99.90
21035;DHT22;10676;50.848;3.272;2023-09-19T12:42:04;23.70;99.90
21035;DHT22;10676;50.848;3.272;2023-09-19T12:44:35;23.70;99.90
21035;DHT22;10676;50.848;3.272;2023-09-19T12:47:09;23.60;99.90
21035;DHT22;10676;50.848;3.272;2023-09-19T12:49:35;23.60;99.90
21035;DHT22;10676;50.848;3.272;2023-09-19T12:52:00;23.50;99.90
21035;DHT22;10676;50.848;3.272;2023-09-19T12:54:38;23.70;99.90
21035;DHT22;10676;50.848;3.272;2023-09-19T12:57:04;23.80;99.90
21035;DHT22;10676;50.848;3.272;2023-09-19T12:59:30;23.80;99.90
21035;DHT22;10676;50.848;3.272;2023-09-19T13:02:04;23.80;99.90
21035;DHT22;10676;50.848;3.272;2023-09-19T13:04:32;23.80;99.90
21035;DHT22;10676;50.848;3.272;2023-09-19T13:07:00;23.70;99.90
21035;DHT22;10676;50.848;3.272;2023-09-19T13:09:27;23.70;99.90
21035;DHT22;10676;50.848;3.272;2023-09-19T13:12:04;23.50;99.90
21035;DHT22;10676;50.848;3.272;2023-09-19T13:14:32;23.40;99.90
21035;DHT22;10676;50.848;3.272;2023-09-19T13:17:06;23.30;99.90
21035;DHT22;10676;50.848;3.272;2023-09-19T13:19:51;23.20;99.90
21035;DHT22;10676;50.848;3.272;2023-09-19T13:25:09;23.00;99.90
21035;DHT22;10676;50.848;3.272;2023-09-19T13:27:40;22.80;99.90
21035;DHT22;10676;50.848;3.272;2023-09-19T13:30:07;22.70;99.90
21035;DHT22;10676;50.848;3.272;2023-09-19T13:32:33;22.70;99.90
21035;DHT22;10676;50.848;3.272;2023-09-19T13:34:59;22.80;99.90
21035;DHT22;10676;50.848;3.272;2023-09-19T13:37:25;22.80;99.90
21035;DHT22;10676;50.848;3.272;2023-09-19T13:39:52;22.60;99.90
21035;DHT22;10676;50.848;3.272;2023-09-19T13:42:17;22.60;99.90
21035;DHT22;10676;50.848;3.272;2023-09-19T13:44:44;22.50;99.90
21035;DHT22;10676;50.848;3.272;2023-09-19T13:47:09;22.40;99.90
21035;DHT22;10676;50.848;3.272;2023-09-19T13:49:38;22.40;99.90
21035;DHT22;10676;50.848;3.272;2023-09-19T13:52:04;22.30;99.90
21035;DHT22;10676;50.848;3.272;2023-09-19T13:54:30;22.10;99.90
21035;DHT22;10676;50.848;3.272;2023-09-19T13:56:56;21.90;99.90
21035;DHT22;10676;50.848;3.272;2023-09-19T13:59:22;21.80;99.90
21035;DHT22;10676;50.848;3.272;2023-09-19T14:01:49;21.70;99.90
21035;DHT22;10676;50.848;3.272;2023-09-19T14:04:16;21.60;99.90
21035;DHT22;10676;50.848;3.272;2023-09-19T14:06:42;21.40;99.90
21035;DHT22;10676;50.848;3.272;2023-09-19T14:09:08;21.30;99.90
21035;DHT22;10676;50.848;3.272;2023-09-19T14:11:36;21.30;99.90
21035;DHT22;10676;50.848;3.272;2023-09-19T14:14:02;21.20;99.90
21035;DHT22;10676;50.848;3.272;2023-09-19T14:16:27;21.10;99.90
21035;DHT22;10676;50.848;3.272;2023-09-19T14:18:56;21.30;99.90
21035;DHT22;10676;50.848;3.272;2023-09-19T14:21:23;21.40;99.90
21035;DHT22;10676;50.848;3.272;2023-09-19T14:23:49;21.60;99.90
21035;DHT22;10676;50.848;3.272;2023-09-19T14:26:15;21.90;99.90
21035;DHT22;10676;50.848;3.272;2023-09-19T14:28:42;22.10;99.90
21035;DHT22;10676;50.848;3.272;2023-09-19T14:31:09;22.30;99.90
21035;DHT22;10676;50.848;3.272;2023-09-19T14:33:36;22.40;99.90
21035;DHT22;10676;50.848;3.272;2023-09-19T14:36:07;22.40;99.90
21035;DHT22;10676;50.848;3.272;2023-09-19T14:38:34;22.30;99.90
21035;DHT22;10676;50.848;3.272;2023-09-19T14:41:05;22.40;99.90
21035;DHT22;10676;50.848;3.272;2023-09-19T14:43:31;22.30;99.90
21035;DHT22;10676;50.848;3.272;2023-09-19T14:46:07;22.10;99.90
21035;DHT22;10676;50.848;3.272;2023-09-19T14:48:36;22.00;99.90
21035;DHT22;10676;50.848;3.272;2023-09-19T14:51:06;21.80;99.90
21035;DHT22;10676;50.848;3.272;2023-09-19T14:53:34;21.70;99.90
21035;DHT22;10676;50.848;3.272;2023-09-19T14:56:05;21.60;99.90
21035;DHT22;10676;50.848;3.272;2023-09-19T14:58:31;21.60;99.90
21035;DHT22;10676;50.848;3.272;2023-09-19T15:03:33;21.50;99.90
21035;DHT22;10676;50.848;3.272;2023-09-19T15:06:01;21.40;99.90
21035;DHT22;10676;50.848;3.272;2023-09-19T15:08:27;21.40;99.90
21035;DHT22;10676;50.848;3.272;2023-09-19T15:10:53;21.30;99.90
21035;DHT22;10676;50.848;3.272;2023-09-19T15:13:22;21.20;99.90
21035;DHT22;10676;50.848;3.272;2023-09-19T15:15:48;21.10;99.90
21035;DHT22;10676;50.848;3.272;2023-09-19T15:18:14;21.00;99.90
21035;DHT22;10676;50.848;3.272;2023-09-19T15:20:46;20.90;99.90
21035;DHT22;10676;50.848;3.272;2023-09-19T15:23:12;20.80;99.90
21035;DHT22;10676;50.848;3.272;2023-09-19T15:25:38;20.70;99.90
21035;DHT22;10676;50.848;3.272;2023-09-19T15:28:06;20.70;99.90
21035;DHT22;10676;50.848;3.272;2023-09-19T15:30:38;20.60;99.90
21035;DHT22;10676;50.848;3.272;2023-09-19T15:33:04;20.50;99.90
21035;DHT22;10676;50.848;3.272;2023-09-19T15:35:30;20.50;99.90
21035;DHT22;10676;50.848;3.272;2023-09-19T15:37:55;20.50;99.90
21035;DHT22;10676;50.848;3.272;2023-09-19T15:40:22;20.40;99.90
21035;DHT22;10676;50.848;3.272;2023-09-19T15:42:50;20.50;99.90
21035;DHT22;10676;50.848;3.272;2023-09-19T15:45:16;20.40;99.90
21035;DHT22;10676;50.848;3.272;2023-09-19T15:47:44;20.40;99.90
21035;DHT22;10676;50.848;3.272;2023-09-19T15:50:10;20.40;99.90
21035;DHT22;10676;50.848;3.272;2023-09-19T15:52:39;20.20;99.90
21035;DHT22;10676;50.848;3.272;2023-09-19T15:55:06;20.10;99.90
21035;DHT22;10676;50.848;3.272;2023-09-19T15:57:36;19.80;99.90
21035;DHT22;10676;50.848;3.272;2023-09-19T16:00:03;19.60;99.90
21035;DHT22;10676;50.848;3.272;2023-09-19T16:02:30;19.40;99.90
21035;DHT22;10676;50.848;3.272;2023-09-19T16:04:58;19.20;99.90
21035;DHT22;10676;50.848;3.272;2023-09-19T16:07:23;19.10;99.90
21035;DHT22;10676;50.848;3.272;2023-09-19T16:09:49;18.90;99.90
21035;DHT22;10676;50.848;3.272;2023-09-19T16:12:15;18.70;99.90
21035;DHT22;10676;50.848;3.272;2023-09-19T16:14:40;18.60;99.90
21035;DHT22;10676;50.848;3.272;2023-09-19T16:17:09;18.40;99.90
21035;DHT22;10676;50.848;3.272;2023-09-19T16:19:36;18.30;99.90
21035;DHT22;10676;50.848;3.272;2023-09-19T16:22:02;18.10;99.90
21035;DHT22;10676;50.848;3.272;2023-09-19T16:24:27;18.00;99.90
21035;DHT22;10676;50.848;3.272;2023-09-19T16:26:57;17.80;99.90
21035;DHT22;10676;50.848;3.272;2023-09-19T16:29:23;17.70;99.90
21035;DHT22;10676;50.848;3.272;2023-09-19T16:31:49;17.70;99.90
21035;DHT22;10676;50.848;3.272;2023-09-19T16:34:15;17.70;99.90